Etusivu
METAR-TAF:

METAR-TAF

Lentoasemat :

Kristianstad, Ruotsi

Leveyspiiri: 55-55N, Pituuspiiri: 014-05E, korkeus merenpinnasta: 23 m

Tämänhetkinen sää

Tämä raportti tehtiin 18 minuuttia sitten, kello 05.20 UTC
Tuuli 8 kn idästä/kaakosta
Lämpötila 8°C
Kosteus 100%
Ilmanpaine 1017 hPa
Näkyvyys: 1300 m
Pilvistä 200 ft:n korkeudessa
utua

METAR: ESMK 210520Z 11008KT 1300 R01/P2000N R19/P2000N BR OVC002 08/08 Q1017

Aika: 06:38 (05:38 UTC)

Sääennuste

Tämä raportti tehtiin 1 tunti ja 8 minuuttia sitten, kello 04.30 UTC
Ennuste voimassa 21. päivästä klo 05 UTC - 21. päivään klo 12 UTC
Tuuli 10 kn idästä/kaakosta
Näkyvyys: 6000 m
Hajonneita pilviä 800 ft:n korkeudessa
Ajoittain
21. päivästä klo 05 UTC - 21. päivään klo 12 UTC
Näkyvyys: 2000 m
Hajonneita pilviä 400 ft:n korkeudessa
heikkoa sadetta, tihkusadetta, utua

TAF: ESMK 210430Z 2105/2112 12010KT 6000 BKN008 TEMPO 2105/2112 2000 -RADZ BR BKN004

Säähavainnot ja -ennusteet yli 4000 lentoasemalta (METAR- ja TAF-raportit).

Käytössä olevat sääasemat on merkitty karttaan keltaisilla ja punaisilla pisteillä.

Aseta hiiri pisteen päälle nähdäksesi sääaseman nimen.

Klikkaa sitten nähdäksesi säähavainnot ja -ennusteet.

Kartan vaihtaminen: klikkaa mustalla rastilla varustettuja vihreitä pisteitä, niin voit zoomata sisään; viivalla varustettua vihreää pistettä, niin voit zoomata ulos tai vihreitä nuolia, niin pääset viereisille kartoille.


METAR-TAF: